Anchorville, Michigan
Current Conditions -  °F | °C
As of 12:55 PM on Monday 20 Oct 2014 (Local Time) from KMTC Reporting Station
Broken Clouds Broken Clouds  
Wind Chill: 55°   Ceiling: 8000
Heat Index: 55°   Visibility: 10mi
Dew Point: 45°   Wind: 9mph
Humidity: 69%   Direction: 220°SW
Pressure: 29.79"   Gusts: NA
Location:  42.69°N, 82.7°W
Report Text: KMTC 201655Z 22008KT 10SM SCT055 BKN080 13/07 A2979 RMK SLP095 T01290074
Loading
Personal Weather Stations






























Interactive Weather Map
Tropical Storm Tracking
New forecast layout! Learn more

10-Day Weather Forecast

Advertisements
Track Severe Weather on mobile